Time;durP1;ratioP1;P1;durP2;ratioP2;P2;SDS_P1;SDS_P2;PMS_P1;PMS_P2;Temp;Humidity;BMP_temperature;BMP_pressure;BME280_temperature;BME280_humidity;BME280_pressure;Samples;Min_cycle;Max_cycle;Signal;HPM_P1;HPM_P2
2022/07/02 00:02:07;;;;;;;;;0.00;0.00;;;;;-146.67;27.73;74310.25;5045412;28;61924;-77
2022/07/02 00:04:34;;;;;;;;;0.00;0.00;;;;;-146.67;27.69;74318.25;5045824;28;61911;-77
2022/07/02 00:06:59;;;;;;;;;0.00;0.00;;;;;-146.67;27.67;74328.22;5045671;28;61838;-77
2022/07/02 00:09:28;;;;;;;;;0.00;0.00;;;;;-146.67;28.13;74328.22;5044350;28;61853;-77
2022/07/02 00:11:57;;;;;;;;;0.00;0.00;;;;;-146.67;27.90;74326.22;5045402;28;61726;-77
2022/07/02 00:14:23;;;;;;;;;0.00;0.00;;;;;-146.67;27.87;74322.22;5043395;28;62047;-77
2022/07/02 00:16:51;;;;;;;;;0.00;0.00;;;;;-146.67;28.11;74320.22;5044129;28;61813;-77
2022/07/02 00:19:17;;;;;;;;;0.00;0.00;;;;;-146.67;28.30;74326.22;5044618;28;61991;-77
2022/07/02 00:21:42;;;;;;;;;0.00;0.00;;;;;-146.67;28.64;74332.22;5045240;28;62000;-77
2022/07/02 00:24:09;;;;;;;;;0.00;0.00;;;;;-146.67;28.33;74326.22;5044484;28;61893;-79
2022/07/02 00:26:40;;;;;;;;;0.00;0.00;;;;;-146.67;28.51;74326.22;5043715;28;61735;-77
2022/07/02 00:29:12;;;;;;;;;0.00;0.00;;;;;-146.67;28.53;74326.22;5044459;28;61948;-77
2022/07/02 00:31:38;;;;;;;;;0.00;0.00;;;;;-146.67;28.73;74328.22;5045253;28;61734;-77
2022/07/02 00:34:05;;;;;;;;;0.00;0.00;;;;;-146.67;28.67;74328.22;5056516;28;61964;-77
2022/07/02 00:36:31;;;;;;;;;0.00;0.00;;;;;-146.67;28.56;74334.22;5063099;28;62265;-77
2022/07/02 00:38:57;;;;;;;;;0.00;0.00;;;;;-146.67;28.52;74330.22;5064761;28;62563;-77
2022/07/02 00:41:24;;;;;;;;;0.00;0.00;;;;;-146.67;28.19;74332.22;5063611;28;61987;-77
2022/07/02 00:43:51;;;;;;;;;0.00;0.00;;;;;-146.67;28.47;74334.22;5064957;28;61791;-78
2022/07/02 00:46:17;;;;;;;;;0.00;0.00;;;;;-146.67;28.81;74344.19;5065109;28;62060;-77
2022/07/02 00:48:43;;;;;;;;;0.00;0.00;;;;;-146.67;28.77;74346.19;5062854;28;65237;-77
2022/07/02 00:51:10;;;;;;;;;0.00;0.00;;;;;-146.67;28.92;74348.19;5064518;28;61864;-77
2022/07/02 00:53:36;;;;;;;;;0.00;0.00;;;;;-146.67;28.71;74350.19;5064539;28;61960;-77
2022/07/02 00:56:01;;;;;;;;;0.00;0.00;;;;;-146.67;29.07;74350.19;5063625;28;62166;-76
2022/07/02 00:58:30;;;;;;;;;0.00;0.00;;;;;-146.67;29.16;74354.16;5063956;28;61797;-77
2022/07/02 01:00:57;;;;;;;;;0.00;0.00;;;;;-146.67;29.38;74370.16;5064577;28;61683;-77
2022/07/02 01:03:23;;;;;;;;;0.00;0.00;;;;;-146.67;29.37;74368.16;5064788;28;61720;-77
2022/07/02 01:05:51;;;;;;;;;0.00;0.00;;;;;-146.67;29.19;74368.16;5064243;28;61804;-77
2022/07/02 01:11:02;;;;;;;;;0.00;0.00;;;;;-146.67;29.26;74372.13;5064611;28;61860;-77
2022/07/02 01:13:32;;;;;;;;;0.00;0.00;;;;;-146.67;29.41;74374.13;5064592;28;61758;-77
2022/07/02 01:15:58;;;;;;;;;0.00;0.00;;;;;-146.67;29.46;74374.13;5063253;28;62180;-77
2022/07/02 01:18:24;;;;;;;;;0.00;0.00;;;;;-146.67;29.52;74388.09;5063698;28;61963;-77
2022/07/02 01:20:49;;;;;;;;;0.00;0.00;;;;;-146.67;29.66;74392.09;5062655;28;61758;-77
2022/07/02 01:23:15;;;;;;;;;0.00;0.00;;;;;-146.67;29.75;74398.09;5062092;28;62376;-77
2022/07/02 01:25:41;;;;;;;;;0.00;0.00;;;;;-146.67;29.44;74402.09;5064547;28;61761;-77
2022/07/02 01:28:06;;;;;;;;;0.00;0.00;;;;;-146.67;29.66;74396.09;5063474;28;61974;-77
2022/07/02 01:30:32;;;;;;;;;0.00;0.00;;;;;-146.67;29.80;74392.09;5064087;28;62365;-77
2022/07/02 01:32:57;;;;;;;;;0.00;0.00;;;;;-146.67;29.80;74410.06;5064548;28;62018;-77
2022/07/02 01:35:23;;;;;;;;;0.00;0.00;;;;;-146.67;29.78;74418.06;5062497;28;61990;-77
2022/07/02 01:37:49;;;;;;;;;0.00;0.00;;;;;-146.67;29.97;74426.03;5062140;28;63883;-77
2022/07/02 01:40:15;;;;;;;;;0.00;0.00;;;;;-146.67;30.05;74436.03;5062951;28;61959;-77
2022/07/02 01:42:41;;;;;;;;;0.00;0.00;;;;;-146.67;30.61;74432.03;5062979;28;62067;-77
2022/07/02 01:45:08;;;;;;;;;0.00;0.00;;;;;-146.67;30.27;74436.03;5064341;28;61777;-77
2022/07/02 01:47:33;;;;;;;;;0.00;0.00;;;;;-146.67;30.18;74436.03;5063121;28;62850;-77
2022/07/02 01:49:59;;;;;;;;;0.00;0.00;;;;;-146.67;30.17;74432.03;5063681;28;61753;-77
2022/07/02 01:52:26;;;;;;;;;0.00;0.00;;;;;-146.67;30.30;74416.06;5062669;28;61991;-77
2022/07/02 01:54:52;;;;;;;;;0.00;0.00;;;;;-146.67;30.20;74410.06;5063923;28;62080;-77
2022/07/02 01:57:18;;;;;;;;;0.00;0.00;;;;;-146.67;30.47;74418.06;5063346;28;62510;-77
2022/07/02 01:59:43;;;;;;;;;0.00;0.00;;;;;-146.67;30.56;74416.06;5061912;28;62124;-77
2022/07/02 02:02:09;;;;;;;;;0.00;0.00;;;;;-146.67;30.32;74428.03;5064089;28;62022;-77
2022/07/02 02:04:35;;;;;;;;;0.00;0.00;;;;;-146.67;30.54;74428.03;5063561;28;61824;-77
2022/07/02 02:07:01;;;;;;;;;0.00;0.00;;;;;-146.67;30.67;74428.03;5062959;28;62091;-78
2022/07/02 02:09:26;;;;;;;;;0.00;0.00;;;;;-146.67;30.49;74426.03;5063754;28;61791;-77
2022/07/02 02:11:52;;;;;;;;;0.00;0.00;;;;;-146.67;30.82;74426.03;5063811;28;61793;-77
2022/07/02 02:14:17;;;;;;;;;0.00;0.00;;;;;-146.67;30.67;74428.03;5063705;28;61660;-77
2022/07/02 02:16:43;;;;;;;;;0.00;0.00;;;;;-146.67;30.77;74428.03;5062353;28;61787;-77
2022/07/02 02:19:08;;;;;;;;;0.00;0.00;;;;;-146.67;30.71;74432.03;5061687;28;61935;-77
2022/07/02 02:21:34;;;;;;;;;0.00;0.00;;;;;-146.67;31.03;74428.03;5063617;28;61847;-77
2022/07/02 02:24:00;;;;;;;;;0.00;0.00;;;;;-146.67;30.61;74432.03;5063357;28;62049;-77
2022/07/02 02:26:26;;;;;;;;;0.00;0.00;;;;;-146.67;31.00;74436.03;5062706;28;61932;-77
2022/07/02 02:28:51;;;;;;;;;0.00;0.00;;;;;-146.67;30.93;74444.00;5063227;28;61743;-77
2022/07/02 02:31:17;;;;;;;;;0.00;0.00;;;;;-146.67;30.62;74438.03;5063440;28;62012;-77
2022/07/02 02:33:43;;;;;;;;;0.00;0.00;;;;;-146.67;30.78;74436.03;5062647;28;61857;-77
2022/07/02 02:36:08;;;;;;;;;0.00;0.00;;;;;-146.67;30.95;74430.03;5061506;28;64952;-77
2022/07/02 02:38:37;;;;;;;;;0.00;0.00;;;;;-146.67;31.09;74434.03;5063301;28;61931;-77
2022/07/02 02:41:05;;;;;;;;;0.00;0.00;;;;;-146.67;31.09;74436.03;5061668;28;61844;-77
2022/07/02 02:43:32;;;;;;;;;0.00;0.00;;;;;-146.67;31.04;74434.03;5063558;28;61761;-77
2022/07/02 02:45:57;;;;;;;;;0.00;0.00;;;;;-146.67;30.70;74430.03;5062451;28;61994;-77
2022/07/02 02:48:23;;;;;;;;;0.00;0.00;;;;;-146.67;31.20;74434.03;5062596;28;61942;-77
2022/07/02 02:50:48;;;;;;;;;0.00;0.00;;;;;-146.67;30.88;74440.00;5063041;28;61914;-77
2022/07/02 02:53:14;;;;;;;;;0.00;0.00;;;;;-146.67;30.96;74446.00;5063061;28;62117;-78
2022/07/02 02:55:39;;;;;;;;;0.00;0.00;;;;;-146.67;31.14;74448.00;5062354;28;61717;-77
2022/07/02 02:58:04;;;;;;;;;0.00;0.00;;;;;-146.67;31.21;74444.00;5062854;28;62067;-77
2022/07/02 03:00:30;;;;;;;;;0.00;0.00;;;;;-146.67;30.99;74446.00;5062656;28;61864;-77
2022/07/02 03:02:56;;;;;;;;;0.00;0.00;;;;;-146.67;31.23;74444.00;5061380;28;61773;-77
2022/07/02 03:05:22;;;;;;;;;0.00;0.00;;;;;-146.67;31.33;74444.00;5062515;28;62069;-77
2022/07/02 03:07:47;;;;;;;;;0.00;0.00;;;;;-146.67;31.25;74446.00;5062396;28;62313;-77
2022/07/02 03:10:13;;;;;;;;;0.00;0.00;;;;;-146.67;31.14;74448.00;5061695;28;62031;-77
2022/07/02 03:12:39;;;;;;;;;0.00;0.00;;;;;-146.67;31.10;74448.00;5062996;28;62056;-77
2022/07/02 03:15:05;;;;;;;;;0.00;0.00;;;;;-146.67;31.37;74456.00;5061976;28;62033;-77
2022/07/02 03:17:30;;;;;;;;;0.00;0.00;;;;;-146.67;31.40;74454.00;5062138;28;61925;-77
2022/07/02 03:19:56;;;;;;;;;0.00;0.00;;;;;-146.67;31.35;74456.00;5060970;28;62535;-77
2022/07/02 03:22:21;;;;;;;;;0.00;0.00;;;;;-146.67;31.31;74457.97;5063003;28;61941;-77
2022/07/02 03:24:47;;;;;;;;;0.00;0.00;;;;;-146.67;31.25;74467.97;5061362;28;61891;-77
2022/07/02 03:27:12;;;;;;;;;0.00;0.00;;;;;-146.67;31.43;74469.97;5062564;28;61892;-77
2022/07/02 03:29:38;;;;;;;;;0.00;0.00;;;;;-146.67;31.36;74469.97;5061148;28;61804;-79
2022/07/02 03:32:03;;;;;;;;;0.00;0.00;;;;;-146.67;31.28;74471.97;5061036;28;61785;-79
2022/07/02 03:34:29;;;;;;;;;0.00;0.00;;;;;-146.67;31.25;74471.97;5061704;28;61904;-77
2022/07/02 03:36:54;;;;;;;;;0.00;0.00;;;;;-146.67;31.51;74469.97;5062127;28;61717;-77
2022/07/02 03:39:20;;;;;;;;;0.00;0.00;;;;;-146.67;31.53;74467.97;5062608;28;61753;-77
2022/07/02 03:41:45;;;;;;;;;0.00;0.00;;;;;-146.67;31.34;74469.97;5062226;28;61749;-78
2022/07/02 03:44:11;;;;;;;;;0.00;0.00;;;;;-146.67;31.28;74471.97;5061553;28;63181;-77
2022/07/02 03:46:36;;;;;;;;;0.00;0.00;;;;;-146.67;31.30;74471.97;5061739;28;61896;-77
2022/07/02 03:49:01;;;;;;;;;0.00;0.00;;;;;-146.67;31.60;74467.97;5062189;28;61662;-77
2022/07/02 03:51:27;;;;;;;;;0.00;0.00;;;;;-146.67;31.75;74471.97;5062292;28;61764;-77
2022/07/02 03:53:52;;;;;;;;;0.00;0.00;;;;;-146.67;31.37;74487.94;5061184;28;61979;-77
2022/07/02 03:56:18;;;;;;;;;0.00;0.00;;;;;-146.67;31.69;74483.94;5062043;28;61737;-78
2022/07/02 03:58:43;;;;;;;;;0.00;0.00;;;;;-146.67;31.68;74481.94;5062436;28;61892;-77
2022/07/02 04:01:09;;;;;;;;;0.00;0.00;;;;;-146.67;31.61;74481.94;5061646;28;61769;-77
2022/07/02 04:03:35;;;;;;;;;0.00;0.00;;;;;-146.67;31.59;74475.94;5061373;28;62804;-77
2022/07/02 04:06:01;;;;;;;;;0.00;0.00;;;;;-146.67;31.78;74489.94;5062163;28;61756;-77
2022/07/02 04:08:27;;;;;;;;;0.00;0.00;;;;;-146.67;31.51;74493.91;5061965;28;61852;-77
2022/07/02 04:10:53;;;;;;;;;0.00;0.00;;;;;-146.67;31.59;74501.91;5062433;28;62102;-77
2022/07/02 04:13:18;;;;;;;;;0.00;0.00;;;;;-146.67;31.87;74497.91;5060189;28;63758;-77
2022/07/02 04:15:44;;;;;;;;;0.00;0.00;;;;;-146.67;31.77;74499.91;5060896;28;61975;-77
2022/07/02 04:18:09;;;;;;;;;0.00;0.00;;;;;-146.67;31.73;74489.94;5060524;28;61877;-77
2022/07/02 04:20:35;;;;;;;;;0.00;0.00;;;;;-146.67;31.52;74481.94;5060815;28;61892;-77
2022/07/02 04:23:00;;;;;;;;;0.00;0.00;;;;;-146.67;31.55;74475.94;5060360;28;62871;-78
2022/07/02 04:25:26;;;;;;;;;0.00;0.00;;;;;-146.67;31.51;74473.97;5062127;28;61788;-78
2022/07/02 04:27:51;;;;;;;;;0.00;0.00;;;;;-146.67;31.63;74475.94;5061266;28;61855;-77
2022/07/02 04:30:17;;;;;;;;;0.00;0.00;;;;;-146.67;31.63;74479.94;5061361;28;61828;-77
2022/07/02 04:32:42;;;;;;;;;0.00;0.00;;;;;-146.67;31.50;74475.94;5060168;28;62645;-77
2022/07/02 04:35:08;;;;;;;;;0.00;0.00;;;;;-146.67;31.62;74483.94;5061651;28;61693;-77
2022/07/02 04:37:33;;;;;;;;;0.00;0.00;;;;;-146.67;31.76;74473.97;5061731;28;61889;-77
2022/07/02 04:39:59;;;;;;;;;0.00;0.00;;;;;-146.67;31.42;74469.97;5061929;28;61749;-77
2022/07/02 04:42:24;;;;;;;;;0.00;0.00;;;;;-146.67;31.74;74471.97;5064556;28;62617;-77
2022/07/02 04:44:50;;;;;;;;;0.00;0.00;;;;;-146.67;31.59;74467.97;5063008;28;61917;-77
2022/07/02 04:47:15;;;;;;;;;0.00;0.00;;;;;-146.67;31.73;74463.97;5063737;28;62163;-77
2022/07/02 04:49:41;;;;;;;;;0.00;0.00;;;;;-146.67;31.68;74463.97;5063838;28;62151;-77
2022/07/02 04:52:06;;;;;;;;;0.00;0.00;;;;;-146.67;31.63;74454.00;5062915;28;65109;-77
2022/07/02 04:54:32;;;;;;;;;0.00;0.00;;;;;-146.67;31.45;74454.00;5063153;28;61890;-77
2022/07/02 04:56:57;;;;;;;;;0.00;0.00;;;;;-146.67;31.48;74440.00;5064968;28;61817;-77
2022/07/02 04:59:23;;;;;;;;;0.00;0.00;;;;;-146.67;31.82;74438.03;5062933;28;61754;-77
2022/07/02 05:01:48;;;;;;;;;0.00;0.00;;;;;-146.67;31.45;74432.03;5064123;28;62029;-78
2022/07/02 05:04:14;;;;;;;;;0.00;0.00;;;;;-146.67;31.45;74422.03;5063273;28;61885;-76
2022/07/02 05:06:39;;;;;;;;;0.00;0.00;;;;;-146.67;31.39;74422.03;5065683;28;61835;-76
2022/07/02 05:09:05;;;;;;;;;0.00;0.00;;;;;-146.67;31.43;74410.06;5064653;28;61794;-77
2022/07/02 05:11:34;;;;;;;;;0.00;0.00;;;;;-146.67;31.22;74410.06;5064151;28;61808;-77
2022/07/02 05:14:02;;;;;;;;;0.00;0.00;;;;;-146.67;31.05;74400.09;5064023;28;61942;-77
2022/07/02 05:16:29;;;;;;;;;0.00;0.00;;;;;-146.67;31.19;74390.09;5064373;28;61852;-77
2022/07/02 05:18:55;;;;;;;;;0.00;0.00;;;;;-146.67;31.41;74396.09;5064655;28;61974;-77
2022/07/02 05:21:20;;;;;;;;;0.00;0.00;;;;;-146.67;31.32;74388.09;5062661;28;63958;-77
2022/07/02 05:23:46;;;;;;;;;0.00;0.00;;;;;-146.67;31.35;74382.13;5063734;28;61972;-77
2022/07/02 05:26:11;;;;;;;;;0.00;0.00;;;;;-146.67;31.23;74374.13;5064360;28;62007;-77
2022/07/02 05:28:36;;;;;;;;;0.00;0.00;;;;;-146.67;31.16;74362.16;5063942;28;61707;-77
2022/07/02 05:31:02;;;;;;;;;0.00;0.00;;;;;-146.67;30.71;74344.19;5061863;28;64706;-77
2022/07/02 05:33:27;;;;;;;;;0.00;0.00;;;;;-146.67;30.54;74322.22;5063023;28;61809;-77
2022/07/02 05:35:53;;;;;;;;;0.00;0.00;;;;;-146.67;30.50;74276.31;5064240;28;61892;-77
2022/07/02 05:38:19;;;;;;;;;0.00;0.00;;;;;-146.67;30.29;74214.44;5064232;28;61826;-77
2022/07/02 05:40:44;;;;;;;;;0.00;0.00;;;;;-146.67;29.57;74142.56;5063656;28;61694;-77
2022/07/02 05:43:10;;;;;;;;;0.00;0.00;;;;;-146.67;29.15;74078.69;5063470;28;61762;-77
2022/07/02 05:45:35;;;;;;;;;0.00;0.00;;;;;-146.67;28.48;73980.88;5064034;28;61959;-77
2022/07/02 05:48:01;;;;;;;;;0.00;0.00;;;;;-146.67;27.88;73883.06;5064137;28;61884;-77
2022/07/02 05:50:26;;;;;;;;;0.00;0.00;;;;;-146.67;27.66;73773.28;5063599;28;61748;-77
2022/07/02 05:52:52;;;;;;;;;0.00;0.00;;;;;-146.67;27.56;73759.28;5061179;28;61937;-78
2022/07/02 05:55:18;;;;;;;;;0.00;0.00;;;;;-146.67;26.72;73771.28;5063682;28;61903;-78
2022/07/02 05:57:43;;;;;;;;;0.00;0.00;;;;;-146.67;26.82;73741.34;5063826;28;61742;-77
2022/07/02 06:00:10;;;;;;;;;0.00;0.00;;;;;-146.67;27.29;73769.28;5062938;28;62789;-79
2022/07/02 06:02:36;;;;;;;;;0.00;0.00;;;;;-146.67;27.01;73805.22;5064011;28;61850;-76
2022/07/02 06:07:46;;;;;;;;;0.00;0.00;;;;;-146.67;27.33;73823.16;5063837;28;61882;-72
2022/07/02 06:10:18;;;;;;;;;0.00;0.00;;;;;-146.67;27.13;73797.22;5062707;28;61706;-80
2022/07/02 06:12:49;;;;;;;;;0.00;0.00;;;;;-146.67;27.40;73801.22;5063988;28;61940;-76
2022/07/02 06:15:15;;;;;;;;;0.00;0.00;;;;;-146.67;27.52;73805.22;5063225;28;62020;-75
2022/07/02 06:17:41;;;;;;;;;0.00;0.00;;;;;-146.67;27.50;73817.19;5063827;28;61794;-82
2022/07/02 06:20:07;;;;;;;;;0.00;0.00;;;;;-146.67;27.53;73819.19;5059416;28;61993;-78
2022/07/02 06:22:33;;;;;;;;;0.00;0.00;;;;;-146.67;27.51;73813.19;5056753;28;62157;-79
2022/07/02 06:24:58;;;;;;;;;0.00;0.00;;;;;-146.67;27.25;73799.22;5042108;28;62648;-79
2022/07/02 06:27:24;;;;;;;;;0.00;0.00;;;;;-146.67;26.96;73749.31;5041429;28;61791;-80
2022/07/02 06:29:49;;;;;;;;;0.00;0.00;;;;;-146.67;25.97;73611.59;5042504;28;62722;-80
2022/07/02 06:32:16;;;;;;;;;0.00;0.00;;;;;-146.67;25.42;73489.84;5043388;28;62904;-81
2022/07/02 06:34:42;;;;;;;;;0.00;0.00;;;;;-146.67;25.16;73509.78;5044464;28;61920;-78
2022/07/02 06:37:08;;;;;;;;;0.00;0.00;;;;;-146.67;25.54;73547.72;5041268;28;62081;-80
2022/07/02 06:39:33;;;;;;;;;0.00;0.00;;;;;-146.67;25.68;73587.63;5049812;28;65001;-76
2022/07/02 06:44:43;;;;;;;;;0.00;0.00;;;;;-146.67;25.65;73667.47;5071050;28;62088;-74
2022/07/02 06:47:09;;;;;;;;;0.00;0.00;;;;;-146.67;25.89;73695.41;5073926;28;62014;-72
2022/07/02 06:49:35;;;;;;;;;0.00;0.00;;;;;-146.67;26.09;73725.38;5069667;27;62756;-73
2022/07/02 06:52:00;;;;;;;;;0.00;0.00;;;;;-146.67;26.21;73739.34;5068150;28;61847;-74
2022/07/02 06:54:26;;;;;;;;;0.00;0.00;;;;;-146.67;25.92;73745.31;5067833;28;61800;-73
2022/07/02 06:56:51;;;;;;;;;0.00;0.00;;;;;-146.67;25.88;73761.28;5073083;27;61975;-73
2022/07/02 06:59:17;;;;;;;;;0.00;0.00;;;;;-146.67;25.75;73769.28;5071881;28;61935;-74
2022/07/02 07:01:42;;;;;;;;;0.00;0.00;;;;;-146.67;26.08;73785.25;5082002;27;61923;-73
2022/07/02 07:04:08;;;;;;;;;0.00;0.00;;;;;-146.67;26.43;73783.25;5083035;28;61797;-74
2022/07/02 07:06:37;;;;;;;;;0.00;0.00;;;;;-146.67;26.31;73785.25;5083217;27;61921;-73
2022/07/02 07:09:02;;;;;;;;;0.00;0.00;;;;;-146.67;26.24;73799.22;5082154;27;61776;-75
2022/07/02 07:11:28;;;;;;;;;0.00;0.00;;;;;-146.67;25.68;73773.28;5081513;28;61997;-75
2022/07/02 07:13:53;;;;;;;;;0.00;0.00;;;;;-146.67;25.50;73767.28;5083156;27;61855;-76
2022/07/02 07:16:19;;;;;;;;;0.00;0.00;;;;;-146.67;25.56;73761.28;5082529;27;61983;-76
2022/07/02 07:18:53;;;;;;;;;0.00;0.00;;;;;-146.67;25.47;73755.31;5077906;27;62601;-76
2022/07/02 07:21:19;;;;;;;;;0.00;0.00;;;;;-146.67;25.06;73757.31;5059541;28;61869;-76
2022/07/02 07:23:45;;;;;;;;;0.00;0.00;;;;;-146.67;25.28;73757.31;5059056;28;62047;-76
2022/07/02 07:26:10;;;;;;;;;0.00;0.00;;;;;-146.67;24.96;73757.31;5061322;28;62173;-76
2022/07/02 07:28:36;;;;;;;;;0.00;0.00;;;;;-146.67;25.08;73763.28;5060178;28;62769;-76
2022/07/02 07:31:01;;;;;;;;;0.00;0.00;;;;;-146.67;24.96;73759.28;5060731;28;61964;-76
2022/07/02 07:33:27;;;;;;;;;0.00;0.00;;;;;-146.67;24.88;73763.28;5059583;28;61950;-76
2022/07/02 07:35:52;;;;;;;;;0.00;0.00;;;;;-146.67;25.08;73775.25;5061293;28;61837;-75
2022/07/02 07:38:18;;;;;;;;;0.00;0.00;;;;;-146.67;25.28;73773.28;5059675;28;62081;-75
2022/07/02 07:40:43;;;;;;;;;0.00;0.00;;;;;-146.67;24.71;73773.28;5059629;28;62007;-76
2022/07/02 07:43:09;;;;;;;;;0.00;0.00;;;;;-146.67;24.59;73771.28;5061153;28;62265;-75
2022/07/02 07:45:34;;;;;;;;;0.00;0.00;;;;;-146.67;24.68;73775.25;5042259;28;62189;-75
2022/07/02 07:48:00;;;;;;;;;0.00;0.00;;;;;-146.67;24.81;73777.25;5060170;28;61815;-76
2022/07/02 07:50:25;;;;;;;;;0.00;0.00;;;;;-146.67;24.74;73779.25;5060717;28;61940;-76
2022/07/02 07:52:51;;;;;;;;;0.00;0.00;;;;;-146.67;24.78;73773.28;5060213;28;62089;-75
2022/07/02 07:55:16;;;;;;;;;0.00;0.00;;;;;-146.67;25.02;73777.25;5061105;28;61758;-75
2022/07/02 07:57:42;;;;;;;;;0.00;0.00;;;;;-146.67;24.96;73773.28;5060079;28;61666;-75
2022/07/02 08:00:08;;;;;;;;;0.00;0.00;;;;;-146.67;24.59;73769.28;5060719;28;61754;-75
2022/07/02 08:02:33;;;;;;;;;0.00;0.00;;;;;-146.67;24.89;73773.28;5060451;28;61810;-75
2022/07/02 08:04:59;;;;;;;;;0.00;0.00;;;;;-146.67;24.62;73775.25;5059753;28;61718;-76
2022/07/02 08:07:25;;;;;;;;;0.00;0.00;;;;;-146.67;24.60;73769.28;5058001;28;62929;-76
2022/07/02 08:09:54;;;;;;;;;0.00;0.00;;;;;-146.67;24.59;73765.28;5059601;28;61910;-76
2022/07/02 08:12:23;;;;;;;;;0.00;0.00;;;;;-146.67;24.73;73757.31;5059040;28;62222;-75
2022/07/02 08:14:49;;;;;;;;;0.00;0.00;;;;;-146.67;24.83;73755.31;5060378;28;61950;-76
2022/07/02 08:17:15;;;;;;;;;0.00;0.00;;;;;-146.67;24.47;73755.31;5063461;28;62050;-75
2022/07/02 08:19:41;;;;;;;;;0.00;0.00;;;;;-146.67;24.42;73755.31;5064015;28;61958;-76
2022/07/02 08:22:06;;;;;;;;;0.00;0.00;;;;;-146.67;24.93;73753.31;5062459;28;61931;-75
2022/07/02 08:24:32;;;;;;;;;0.00;0.00;;;;;-146.67;24.76;73755.31;5063493;28;62083;-76
2022/07/02 08:26:57;;;;;;;;;0.00;0.00;;;;;-146.67;24.67;73745.31;5064767;28;61802;-76
2022/07/02 08:29:23;;;;;;;;;0.00;0.00;;;;;-146.67;24.57;73743.31;5063569;28;62063;-76
2022/07/02 08:31:48;;;;;;;;;0.00;0.00;;;;;-146.67;24.32;73735.34;5065027;28;61992;-79
2022/07/02 08:34:14;;;;;;;;;0.00;0.00;;;;;-146.67;24.74;73729.34;5051573;28;61964;-81
2022/07/02 08:36:40;;;;;;;;;0.00;0.00;;;;;-146.67;24.58;73721.38;5043838;28;62529;-75
2022/07/02 08:39:05;;;;;;;;;0.00;0.00;;;;;-146.67;24.48;73725.38;5045226;28;61800;-76
2022/07/02 08:41:32;;;;;;;;;0.00;0.00;;;;;-146.67;24.25;73733.34;5045188;28;61872;-78
2022/07/02 08:44:00;;;;;;;;;0.00;0.00;;;;;-146.67;24.42;73731.34;5045434;28;61721;-79
2022/07/02 08:46:27;;;;;;;;;0.00;0.00;;;;;-146.67;24.17;73729.34;5044308;28;61885;-78
2022/07/02 08:48:53;;;;;;;;;0.00;0.00;;;;;-146.67;24.54;73727.34;5044715;28;61798;-75
2022/07/02 08:51:20;;;;;;;;;0.00;0.00;;;;;-146.67;24.40;73723.38;5044874;28;61833;-76
2022/07/02 08:53:46;;;;;;;;;0.00;0.00;;;;;-146.67;24.02;73729.34;5052234;28;61644;-76
2022/07/02 08:56:14;;;;;;;;;0.00;0.00;;;;;-146.67;24.71;73735.34;5075097;28;61965;-76
2022/07/02 08:58:40;;;;;;;;;0.00;0.00;;;;;-146.67;24.14;73735.34;5068945;28;61715;-76
2022/07/02 09:01:08;;;;;;;;;0.00;0.00;;;;;-146.67;24.48;73725.38;5075981;28;62003;-76
2022/07/02 09:03:34;;;;;;;;;0.00;0.00;;;;;-146.67;24.23;73721.38;5074936;27;62090;-75
2022/07/02 09:06:02;;;;;;;;;0.00;0.00;;;;;-146.67;24.11;73713.38;5072057;27;62664;-76
2022/07/02 09:08:29;;;;;;;;;0.00;0.00;;;;;-146.67;24.13;73707.41;5075069;28;62188;-74
2022/07/02 09:10:56;;;;;;;;;0.00;0.00;;;;;-146.67;23.99;73709.41;5072517;28;62061;-75
2022/07/02 09:13:23;;;;;;;;;0.00;0.00;;;;;-146.67;24.02;73695.41;5075624;28;62428;-75
2022/07/02 09:15:49;;;;;;;;;0.00;0.00;;;;;-146.67;24.28;73693.44;5061827;28;63669;-76
2022/07/02 09:18:14;;;;;;;;;0.00;0.00;;;;;-146.67;23.97;73693.44;5063116;28;61882;-76
2022/07/02 09:20:40;;;;;;;;;0.00;0.00;;;;;-146.67;24.37;73701.41;5061981;28;61814;-76
2022/07/02 09:23:09;;;;;;;;;0.00;0.00;;;;;-146.67;24.12;73693.44;5063733;28;61785;-76
2022/07/02 09:25:35;;;;;;;;;0.00;0.00;;;;;-146.67;24.19;73691.44;5063259;28;62090;-76
2022/07/02 09:28:04;;;;;;;;;0.00;0.00;;;;;-146.67;23.89;73695.41;5062344;28;62063;-76
2022/07/02 09:30:32;;;;;;;;;0.00;0.00;;;;;-146.67;23.95;73689.44;5062254;28;62027;-79
2022/07/02 09:35:42;;;;;;;;;0.00;0.00;;;;;-146.67;23.57;73661.50;5063382;28;61938;-76
2022/07/02 09:38:11;;;;;;;;;0.00;0.00;;;;;-146.67;24.08;73657.50;5064220;28;61816;-76
2022/07/02 09:40:59;;;;;;;;;0.00;0.00;;;;;-146.67;23.54;73665.47;5064446;28;61989;-76
2022/07/02 09:43:32;;;;;;;;;0.00;0.00;;;;;-146.67;23.88;73659.50;5064633;28;61813;-76
2022/07/02 09:46:01;;;;;;;;;0.00;0.00;;;;;-146.67;23.65;73661.50;5063095;28;61860;-76
2022/07/02 09:48:27;;;;;;;;;0.00;0.00;;;;;-146.67;23.54;73667.47;5063615;28;61746;-76
2022/07/02 09:50:53;;;;;;;;;0.00;0.00;;;;;-146.67;23.75;73653.50;5062577;28;61893;-76
2022/07/02 09:53:18;;;;;;;;;0.00;0.00;;;;;-146.67;23.67;73651.50;5063766;28;61932;-76
2022/07/02 09:55:51;;;;;;;;;0.00;0.00;;;;;-146.67;23.74;73663.47;5061932;28;63737;-76
2022/07/02 09:58:28;;;;;;;;;0.00;0.00;;;;;-146.67;23.42;73647.50;5062373;28;61773;-76
2022/07/02 10:00:55;;;;;;;;;0.00;0.00;;;;;-146.67;23.59;73627.56;5063775;28;61734;-76
2022/07/02 10:03:21;;;;;;;;;0.00;0.00;;;;;-146.67;23.02;73611.59;5062496;28;62196;-76
2022/07/02 10:05:50;;;;;;;;;0.00;0.00;;;;;-146.67;23.18;73611.59;5063168;28;61844;-76
2022/07/02 10:08:16;;;;;;;;;0.00;0.00;;;;;-146.67;23.12;73593.63;5063356;28;61973;-76
2022/07/02 10:10:42;;;;;;;;;0.00;0.00;;;;;-146.67;23.42;73573.66;5063621;28;61746;-79
2022/07/02 10:13:10;;;;;;;;;0.00;0.00;;;;;-146.67;23.28;73553.72;5064058;28;61678;-75
2022/07/02 10:15:39;;;;;;;;;0.00;0.00;;;;;-146.67;23.21;73539.72;5061304;28;64829;-76
2022/07/02 10:18:05;;;;;;;;;0.00;0.00;;;;;-146.67;23.33;73537.75;5061558;28;61903;-76
2022/07/02 10:20:33;;;;;;;;;0.00;0.00;;;;;-146.67;23.25;73517.78;5062105;28;61996;-76
2022/07/02 10:23:04;;;;;;;;;0.00;0.00;;;;;-146.67;23.03;73497.81;5058590;28;61808;-76
2022/07/02 10:25:32;;;;;;;;;0.00;0.00;;;;;-146.67;22.97;73485.84;5061737;28;61942;-77
2022/07/02 10:27:58;;;;;;;;;0.00;0.00;;;;;-146.67;22.81;73471.88;5061904;28;61795;-78
2022/07/02 10:30:30;;;;;;;;;0.00;0.00;;;;;-146.67;23.13;73473.88;5061606;28;61912;-77
2022/07/02 10:33:01;;;;;;;;;0.00;0.00;;;;;-146.67;23.04;73467.88;5061516;28;61923;-77
2022/07/02 10:35:28;;;;;;;;;0.00;0.00;;;;;-146.67;22.74;73463.88;5060379;28;64526;-77
2022/07/02 10:37:59;;;;;;;;;0.00;0.00;;;;;-146.67;22.98;73441.94;5061362;28;62237;-79
2022/07/02 10:40:24;;;;;;;;;0.00;0.00;;;;;-146.67;22.74;73431.94;5062135;28;61768;-78
2022/07/02 10:42:51;;;;;;;;;0.00;0.00;;;;;-146.67;22.95;73423.97;5062182;28;61885;-77
2022/07/02 10:45:22;;;;;;;;;0.00;0.00;;;;;-146.67;22.48;73429.97;5061695;28;62115;-77
2022/07/02 10:48:00;;;;;;;;;0.00;0.00;;;;;-146.67;23.04;73415.97;5062362;28;61930;-77
2022/07/02 10:50:40;;;;;;;;;0.00;0.00;;;;;-146.67;22.52;73402.00;5061604;28;61708;-77
2022/07/02 10:53:20;;;;;;;;;0.00;0.00;;;;;-146.67;22.73;73398.03;5059433;28;61900;-80
2022/07/02 10:55:52;;;;;;;;;0.00;0.00;;;;;-146.67;22.93;73386.03;5059816;28;61784;-79
2022/07/02 10:58:22;;;;;;;;;0.00;0.00;;;;;-146.67;22.80;73386.03;5062829;28;61764;-78
2022/07/02 11:00:49;;;;;;;;;0.00;0.00;;;;;-146.67;22.79;73376.06;5061605;28;61915;-77
2022/07/02 11:03:18;;;;;;;;;0.00;0.00;;;;;-146.67;22.26;73360.09;5061786;28;62009;-83
2022/07/02 11:05:55;;;;;;;;;0.00;0.00;;;;;-146.67;22.42;73358.09;5062276;28;62098;-81
2022/07/02 11:08:48;;;;;;;;;0.00;0.00;;;;;-146.67;22.29;73350.13;5061228;28;61947;-78
2022/07/02 11:11:19;;;;;;;;;0.00;0.00;;;;;-146.67;22.34;73330.16;5061266;28;62096;-82
2022/07/02 11:13:47;;;;;;;;;0.00;0.00;;;;;-146.67;22.06;73326.16;5061791;28;62116;-89
2022/07/02 11:16:22;;;;;;;;;0.00;0.00;;;;;-146.67;22.08;73310.19;5061114;28;62394;-85
2022/07/02 11:18:48;;;;;;;;;0.00;0.00;;;;;-146.67;22.17;73306.22;5062946;28;61997;-83
2022/07/02 11:21:14;;;;;;;;;0.00;0.00;;;;;-146.67;22.18;73294.22;5061317;28;61748;-83
2022/07/02 11:23:40;;;;;;;;;0.00;0.00;;;;;-146.67;22.35;73286.25;5062617;28;63197;-87
2022/07/02 11:26:07;;;;;;;;;1.00;0.00;;;;;-146.67;21.83;73282.25;5060524;28;62914;-80